Terminal Aerodrome Forecast
Issued by NWS Charleston, WV

Current Version | Previous Version | Text Only | Print | Product List | Glossary Off
Versions: 1 2 3 4 5 6 7 8 9 10 11 12 13 14 15 16 17 18 19 20 21 22 23 24 25

000
FTUS41 KRLX 211000 AAB
TAFBKW
TAF AMD
KBKW 211036Z 2111/2206 21003KT P6SM BKN025
     FM211500 28005KT P6SM BKN035
     FM211700 28006KT P6SM VCTS BKN025CB
     FM212000 27005KT 6SM TSRA BR BKN040CB
     FM220100 00000KT P6SM VCTS BKN040CB
     FM220500 00000KT P6SM BKN040=

USA.gov is the U.S. government's official web portal to all federal, state and local government web resources and services.